| time (UTC) | temp C | wind direction | speed KPH | gust KPH | rain 1hr cm | rain 24hr cm | rain mn cm | humidity % | barometer mb |
| 20260505123021 | 11 | 0 | 0.0 | 0.0 | 0.00 | 0.79 | 0.79 | 96 | 1008.4 |
| 20260505122048 | 11 | 0 | 0.0 | 0.0 | 0.00 | 0.79 | 0.79 | 96 | 1008.4 |
| 20260505121036 | 11 | 0 | 0.0 | 0.0 | 0.00 | 0.79 | 0.79 | 96 | 1008.4 |
| 20260505120044 | 11 | 0 | 0.0 | 0.0 | 0.00 | 0.79 | 0.79 | 96 | 1008.4 |
| 20260505114045 | 11 | 0 | 0.0 | 0.0 | 0.00 | 0.79 | 0.79 | 95 | 1008.5 |
| 20260505112049 | 11 | 0 | 0.0 | 0.0 | 0.00 | 0.79 | 0.79 | 95 | 1008.5 |
| 20260505111044 | 11 | 0 | 0.0 | 0.0 | 0.00 | 0.79 | 0.79 | 95 | 1008.6 |
| 20260505102046 | 11 | 0 | 0.0 | 0.0 | 0.00 | 0.79 | 0.79 | 97 | 1008.8 |
| 20260505100043 | 11 | 0 | 0.0 | 0.0 | 0.00 | 0.79 | 0.79 | 97 | 1008.8 |
| 20260505095043 | 11 | 0 | 0.0 | 0.0 | 0.00 | 0.79 | 0.79 | 97 | 1008.8 |
| 20260505094043 | 11 | 0 | 0.0 | 0.0 | 0.00 | 0.79 | 0.79 | 97 | 1008.7 |
| 20260505093043 | 11 | 0 | 0.0 | 0.0 | 0.00 | 0.79 | 0.79 | 97 | 1008.7 |
| 20260505091045 | 11 | 0 | 0.0 | 0.0 | 0.00 | 0.79 | 0.79 | 98 | 1008.7 |
| 20260505090045 | 11 | 0 | 0.0 | 0.0 | 0.00 | 0.79 | 0.79 | 98 | 1008.8 |
| 20260505085043 | 11 | 0 | 0.0 | 0.0 | 0.00 | 0.79 | 0.79 | 98 | 1008.7 |
| 20260505084043 | 11 | 0 | 0.0 | 0.0 | 0.03 | 0.79 | 0.79 | 98 | 1008.8 |
| 20260505083045 | 11 | 0 | 0.0 | 0.0 | 0.03 | 0.79 | 0.79 | 98 | 1008.8 |
| 20260505081044 | 11 | 0 | 0.0 | 0.0 | 0.03 | 0.79 | 0.79 | 97 | 1009.0 |
| 20260505080042 | 11 | 0 | 0.0 | 0.0 | 0.03 | 0.79 | 0.79 | 98 | 1008.9 |
| 20260505075043 | 11 | 0 | 0.0 | 0.0 | 0.03 | 0.79 | 0.79 | 98 | 1008.9 |
| 20260505072045 | 11 | 0 | 0.0 | 0.0 | 0.00 | 0.79 | 0.76 | 98 | 1009.0 |
| 20260505071046 | 11 | 0 | 0.0 | 0.0 | 0.00 | 0.79 | 0.76 | 98 | 1009.0 |
| 20260505065044 | 11 | 0 | 0.0 | 0.0 | 0.00 | 0.79 | 0.76 | 99 | 1008.9 |
| 20260505064043 | 11 | 0 | 0.0 | 0.0 | 0.00 | 0.79 | 0.76 | 99 | 1008.9 |
| 20260505063042 | 11 | 0 | 0.0 | 0.0 | 0.00 | 0.79 | 0.76 | 99 | 1008.9 |
| 20260505062044 | 11 | 0 | 0.0 | 0.0 | 0.00 | 0.79 | 0.76 | 99 | 1008.9 |
| 20260505061043 | 11 | 0 | 0.0 | 0.0 | 0.00 | 0.79 | 0.76 | 99 | 1008.9 |
| 20260505060042 | 11 | 0 | 0.0 | 0.0 | 0.00 | 0.79 | 0.76 | 99 | 1009.0 |
| 20260505055044 | 11 | 0 | 0.0 | 0.0 | 0.00 | 0.79 | 0.76 | 99 | 1009.0 |
| 20260505054051 | 11 | 0 | 0.0 | 0.0 | 0.00 | 0.79 | 0.76 | 99 | 1009.0 |
| 20260505053041 | 12 | 0 | 0.0 | 0.0 | 0.03 | 0.79 | 0.76 | 99 | 1009.0 |
| 20260505052044 | 12 | 0 | 0.0 | 0.0 | 0.05 | 0.79 | 0.76 | 98 | 1008.9 |
| 20260505051047 | 12 | 0 | 0.0 | 0.0 | 0.08 | 0.79 | 0.76 | 98 | 1008.9 |
| 20260505041044 | 11 | 0 | 0.0 | 0.0 | 0.46 | 0.71 | 0.71 | 98 | 1009.0 |
| 20260505040045 | 11 | 0 | 0.0 | 0.0 | 0.61 | 0.71 | 0.69 | 98 | 1009.0 |
| 20260505035046 | 11 | 0 | 0.0 | 0.0 | 0.66 | 0.71 | 0.69 | 98 | 1009.1 |
| 20260505034045 | 11 | 0 | 0.0 | 0.0 | 0.64 | 0.69 | 0.66 | 98 | 1009.1 |
| 20260505032047 | 11 | 0 | 0.0 | 0.0 | 0.48 | 0.51 | 0.48 | 98 | 1009.2 |
| 20260505031046 | 11 | 0 | 0.0 | 0.0 | 0.38 | 0.43 | 0.38 | 98 | 1009.3 |
| 20260505030045 | 11 | 0 | 0.0 | 0.0 | 0.23 | 0.28 | 0.23 | 98 | 1009.4 |
| 20260505025044 | 11 | 0 | 0.0 | 0.0 | 0.05 | 0.10 | 0.05 | 98 | 1009.4 |
| 20260505024048 | 12 | 0 | 0.0 | 0.0 | 0.03 | 0.05 | 0.03 | 98 | 1009.5 |
| 20260505023050 | 11 | 0 | 0.0 | 0.0 | 0.03 | 0.05 | 0.03 | 98 | 1009.4 |
| 20260505022045 | 12 | 0 | 0.0 | 0.0 | 0.00 | 0.05 | 0.00 | 98 | 1009.4 |
| 20260505021047 | 12 | 0 | 0.0 | 0.0 | 0.00 | 0.05 | 0.00 | 98 | 1009.5 |
| 20260505020047 | 11 | 0 | 0.0 | 0.0 | 0.00 | 0.05 | 0.00 | 98 | 1009.4 |
| 20260505015045 | 11 | 0 | 0.0 | 0.0 | 0.00 | 0.05 | 0.00 | 98 | 1009.5 |
| 20260505014045 | 12 | 0 | 0.0 | 0.0 | 0.00 | 0.05 | 0.00 | 98 | 1009.5 |
| 20260505013046 | 11 | 0 | 0.0 | 0.0 | 0.00 | 0.05 | 0.00 | 98 | 1009.6 |
| 20260505012045 | 11 | 0 | 0.0 | 0.0 | 0.00 | 0.05 | 0.00 | 98 | 1009.6 |
| 20260505011045 | 11 | 0 | 0.0 | 0.0 | 0.00 | 0.05 | 0.00 | 98 | 1009.6 |
| 20260505010047 | 11 | 0 | 0.0 | 0.0 | 0.00 | 0.05 | 0.00 | 98 | 1009.7 |
| 20260505005047 | 11 | 0 | 0.0 | 0.0 | 0.00 | 0.05 | 0.00 | 98 | 1009.7 |
| 20260505003047 | 11 | 0 | 0.0 | 0.0 | 0.00 | 0.05 | 0.00 | 98 | 1010.0 |
| 20260505002046 | 11 | 0 | 0.0 | 0.0 | 0.00 | 0.05 | 0.00 | 98 | 1010.2 |
| 20260505001047 | 11 | 0 | 0.0 | 0.0 | 0.00 | 0.05 | 0.00 | 98 | 1010.2 |
| 20260505000052 | 11 | 0 | 0.0 | 0.0 | 0.00 | 0.05 | 0.00 | 98 | 1010.2 |
| 20260504235049 | 11 | 0 | 0.0 | 0.0 | 0.00 | 0.05 | 0.00 | 98 | 1010.3 |
| 20260504233049 | 11 | 0 | 0.0 | 0.0 | 0.00 | 0.05 | 0.00 | 98 | 1010.4 |
| 20260504231050 | 11 | 0 | 0.0 | 0.0 | 0.00 | 0.05 | 0.00 | 98 | 1010.6 |
| 20260504225050 | 11 | 0 | 0.0 | 0.0 | 0.00 | 0.05 | 0.00 | 98 | 1010.7 |
| 20260504224050 | 11 | 0 | 0.0 | 0.0 | 0.00 | 0.05 | 0.00 | 97 | 1010.8 |
| 20260504223048 | 11 | 0 | 0.0 | 0.0 | 0.00 | 0.05 | 0.00 | 97 | 1010.9 |
| 20260504222051 | 11 | 0 | 0.0 | 0.0 | 0.00 | 0.05 | 0.00 | 97 | 1011.0 |
| 20260504221050 | 11 | 0 | 0.0 | 0.0 | 0.00 | 0.05 | 0.00 | 97 | 1011.0 |
| 20260504220050 | 11 | 0 | 0.0 | 0.0 | 0.00 | 0.05 | 0.00 | 96 | 1011.1 |
| 20260504215022 | 11 | 0 | 0.0 | 0.0 | 0.00 | 0.05 | 0.05 | 96 | 1011.1 |
| 20260504214049 | 11 | 0 | 0.0 | 0.0 | 0.00 | 0.05 | 0.05 | 96 | 1011.2 |
| 20260504213049 | 12 | 0 | 0.0 | 0.0 | 0.00 | 0.05 | 0.05 | 96 | 1011.3 |
| 20260504212023 | 12 | 0 | 0.0 | 0.0 | 0.00 | 0.05 | 0.05 | 96 | 1011.3 |
| 20260504211020 | 12 | 0 | 0.0 | 0.0 | 0.00 | 0.05 | 0.05 | 95 | 1011.4 |
| 20260504210050 | 12 | 0 | 0.0 | 0.0 | 0.00 | 0.05 | 0.05 | 95 | 1011.4 |
| 20260504203024 | 12 | 0 | 0.0 | 0.0 | 0.00 | 0.05 | 0.05 | 94 | 1011.5 |
| 20260504201036 | 12 | 0 | 0.0 | 0.0 | 0.00 | 0.05 | 0.05 | 93 | 1011.4 |
| 20260504195051 | 13 | 0 | 0.0 | 0.0 | 0.00 | 0.05 | 0.05 | 92 | 1011.3 |
| 20260504193020 | 13 | 0 | 0.0 | 0.0 | 0.00 | 0.05 | 0.05 | 93 | 1011.2 |
| 20260504192025 | 13 | 0 | 0.0 | 0.0 | 0.00 | 0.05 | 0.05 | 94 | 1011.0 |
| 20260504190050 | 13 | 0 | 0.0 | 0.0 | 0.00 | 0.05 | 0.05 | 93 | 1011.0 |
| 20260504185051 | 13 | 0 | 0.0 | 0.0 | 0.00 | 0.05 | 0.05 | 92 | 1010.9 |
| 20260504184046 | 13 | 0 | 0.0 | 0.0 | 0.00 | 0.05 | 0.05 | 91 | 1010.9 |
| 20260504183020 | 14 | 0 | 0.0 | 0.0 | 0.00 | 0.05 | 0.05 | 89 | 1010.8 |
| 20260504181022 | 15 | 0 | 0.0 | 0.0 | 0.00 | 0.05 | 0.05 | 87 | 1010.9 |
| 20260504180021 | 15 | 0 | 0.0 | 0.0 | 0.00 | 0.05 | 0.05 | 87 | 1011.0 |
| 20260504175022 | 15 | 0 | 0.0 | 0.0 | 0.03 | 0.05 | 0.05 | 87 | 1011.1 |
| 20260504174020 | 15 | 0 | 0.0 | 0.0 | 0.03 | 0.05 | 0.05 | 87 | 1011.0 |
| 20260504173023 | 15 | 0 | 0.0 | 0.0 | 0.03 | 0.05 | 0.05 | 87 | 1011.0 |
| 20260504172021 | 15 | 0 | 0.0 | 0.0 | 0.03 | 0.05 | 0.05 | 86 | 1011.0 |
| 20260504171021 | 15 | 0 | 0.0 | 0.0 | 0.03 | 0.05 | 0.05 | 88 | 1010.9 |